createdAt,value
2022-09-10T00:01:40.748Z,100596.66
2022-09-10T00:04:12.851Z,100682.00
2022-09-10T00:06:45.303Z,100698.88
2022-09-10T00:09:14.670Z,100675.16
2022-09-10T00:11:43.604Z,100569.47
2022-09-10T00:14:19.938Z,100685.47
2022-09-10T00:16:48.461Z,100683.56
2022-09-10T00:19:17.370Z,100671.97
2022-09-10T00:21:47.089Z,100678.44
2022-09-10T00:24:15.583Z,100666.22
2022-09-10T00:26:44.167Z,100664.59
2022-09-10T00:29:15.183Z,100567.41
2022-09-10T00:31:43.889Z,100672.78
2022-09-10T00:34:14.248Z,100676.72
2022-09-10T00:36:44.923Z,100676.59
2022-09-10T00:39:16.442Z,100673.91
2022-09-10T00:41:47.777Z,100673.91
2022-09-10T00:44:56.010Z,100668.84
2022-09-10T00:47:30.895Z,100666.00
2022-09-10T00:50:05.487Z,100564.03
2022-09-10T00:52:39.431Z,100679.06
2022-09-10T00:55:11.591Z,100656.03
2022-09-10T00:57:41.237Z,100666.50
2022-09-10T01:00:13.756Z,100641.06
2022-09-10T01:02:43.750Z,100653.34
2022-09-10T01:05:13.428Z,100659.00
2022-09-10T01:07:42.865Z,100644.81
2022-09-10T01:10:18.027Z,100645.72
2022-09-10T01:13:15.956Z,100657.47
2022-09-10T01:15:51.616Z,100615.59
2022-09-10T01:18:34.912Z,100654.22
2022-09-10T01:21:19.362Z,100652.06
2022-09-10T01:24:30.655Z,100652.25
2022-09-10T01:27:41.284Z,100648.53
2022-09-10T01:30:15.738Z,100652.03
2022-09-10T01:32:59.474Z,100655.84
2022-09-10T01:35:39.246Z,100649.22
2022-09-10T01:38:15.787Z,100626.63
2022-09-10T01:40:46.425Z,100651.72
2022-09-10T01:43:20.122Z,100643.25
2022-09-10T01:46:11.635Z,100645.63
2022-09-10T01:48:59.899Z,100649.84
2022-09-10T01:51:40.309Z,100641.81
2022-09-10T01:54:28.475Z,100641.75
2022-09-10T01:57:10.987Z,100652.47
2022-09-10T01:59:51.512Z,100615.69
2022-09-10T02:02:25.260Z,100562.44
2022-09-10T02:04:55.498Z,100658.25
2022-09-10T02:07:27.230Z,100652.75
2022-09-10T02:09:57.454Z,100649.09
2022-09-10T02:12:27.879Z,100651.09
2022-09-10T02:15:28.650Z,100653.91
2022-09-10T02:18:07.450Z,100649.03
2022-09-10T02:20:35.794Z,100646.03
2022-09-10T02:23:04.906Z,100640.13
2022-09-10T02:25:37.255Z,100639.63
2022-09-10T02:28:06.199Z,100643.13
2022-09-10T02:30:36.261Z,100640.28
2022-09-10T02:33:04.791Z,100640.25
2022-09-10T02:35:33.128Z,100646.97
2022-09-10T02:38:01.547Z,100639.66
2022-09-10T02:40:31.751Z,100639.00
2022-09-10T02:43:00.467Z,100641.50
2022-09-10T02:45:30.210Z,100636.88
2022-09-10T02:48:01.565Z,100644.84
2022-09-10T02:50:31.257Z,100639.63
2022-09-10T02:53:00.986Z,100640.22
2022-09-10T02:55:29.371Z,100638.56
2022-09-10T02:57:58.316Z,100641.09
2022-09-10T03:00:27.040Z,100644.34
2022-09-10T03:03:00.869Z,100631.09
2022-09-10T03:05:32.699Z,100652.19
2022-09-10T03:08:01.431Z,100648.63
2022-09-10T03:10:31.745Z,100641.38
2022-09-10T03:13:00.428Z,100642.28
2022-09-10T03:15:29.567Z,100628.81
2022-09-10T03:17:58.261Z,100656.78
2022-09-10T03:20:27.480Z,100641.66
2022-09-10T03:22:57.242Z,100638.81
2022-09-10T03:25:25.627Z,100642.19
2022-09-10T03:27:59.789Z,100630.66
2022-09-10T03:30:29.144Z,100637.97
2022-09-10T03:32:57.793Z,100631.50
2022-09-10T03:35:26.208Z,100634.59
2022-09-10T03:37:56.035Z,100628.56
2022-09-10T03:40:24.307Z,100632.47
2022-09-10T03:42:52.601Z,100639.31
2022-09-10T03:45:20.820Z,100640.66
2022-09-10T03:47:49.057Z,100638.84
2022-09-10T03:50:20.306Z,100645.63
2022-09-10T03:52:48.608Z,100647.38
2022-09-10T03:55:18.950Z,100638.28
2022-09-10T03:57:47.385Z,100643.38
2022-09-10T04:00:17.718Z,100643.31
2022-09-10T04:02:46.877Z,100648.59
2022-09-10T04:05:16.000Z,100643.84
2022-09-10T04:07:44.261Z,100645.38
2022-09-10T04:10:14.680Z,100616.41
2022-09-10T04:12:45.176Z,100644.31
2022-09-10T04:15:13.767Z,100647.91
2022-09-10T04:17:42.252Z,100646.03
2022-09-10T04:20:12.010Z,100645.84
2022-09-10T04:22:41.183Z,100645.75
2022-09-10T04:25:10.714Z,100643.31
2022-09-10T04:27:40.003Z,100652.34
2022-09-10T04:30:12.416Z,100646.34
2022-09-10T04:32:41.070Z,100644.56
2022-09-10T04:35:11.170Z,100649.03
2022-09-10T04:37:39.579Z,100619.31
2022-09-10T04:40:09.667Z,100646.72
2022-09-10T04:42:39.046Z,100655.56
2022-09-10T04:45:10.927Z,100658.94
2022-09-10T04:47:39.375Z,100661.22
2022-09-10T04:50:10.263Z,100659.25
2022-09-10T04:52:39.031Z,100671.13
2022-09-10T04:55:09.692Z,100668.75
2022-09-10T04:57:38.251Z,100664.19
2022-09-10T05:00:09.007Z,100676.53
2022-09-10T05:02:40.636Z,100678.44
2022-09-10T05:05:09.943Z,100676.50
2022-09-10T05:07:38.647Z,100675.69
2022-09-10T05:10:10.509Z,100680.00
2022-09-10T05:12:39.612Z,100684.81
2022-09-10T05:15:09.984Z,100688.03
2022-09-10T05:17:39.833Z,100687.16
2022-09-10T05:20:10.150Z,100687.09
2022-09-10T05:22:45.392Z,100691.53
2022-09-10T05:25:13.779Z,100696.03
2022-09-10T05:27:42.790Z,100695.28
2022-09-10T05:30:15.268Z,100672.88
2022-09-10T05:32:45.184Z,100697.22
2022-09-10T05:35:14.555Z,100676.34
2022-09-10T05:37:46.377Z,100665.69
2022-09-10T05:40:16.256Z,100701.16
2022-09-10T05:42:44.932Z,100701.84
2022-09-10T05:45:14.019Z,100700.63
2022-09-10T05:47:45.474Z,100703.44
2022-09-10T05:50:18.621Z,100707.66
2022-09-10T05:52:47.211Z,100721.16
2022-09-10T05:55:15.774Z,100719.94
2022-09-10T05:57:44.106Z,100725.22
2022-09-10T06:00:15.951Z,100706.56
2022-09-10T06:02:53.269Z,100729.09
2022-09-10T06:05:31.991Z,100731.78
2022-09-10T06:08:05.415Z,100706.00
2022-09-10T06:10:38.558Z,100741.13
2022-09-10T06:13:07.387Z,100732.56
2022-09-10T06:15:37.889Z,100728.63
2022-09-10T06:18:07.611Z,100732.41
2022-09-10T06:20:37.001Z,100735.38
2022-09-10T06:23:06.999Z,100744.63
2022-09-10T06:25:35.257Z,100742.22
2022-09-10T06:28:03.933Z,100744.53
2022-09-10T06:30:32.449Z,100745.13
2022-09-10T06:33:00.984Z,100759.00
2022-09-10T06:35:32.402Z,100762.03
2022-09-10T06:38:02.071Z,100744.34
2022-09-10T06:40:30.367Z,100753.25
2022-09-10T06:43:06.090Z,100745.03
2022-09-10T06:46:02.032Z,100766.84
2022-09-10T06:48:48.540Z,100776.53
2022-09-10T06:51:20.535Z,100776.19
2022-09-10T06:53:51.294Z,100777.06
2022-09-10T06:56:22.095Z,100781.19
2022-09-10T06:58:51.726Z,100783.06
2022-09-10T07:01:23.786Z,100791.72
2022-09-10T07:03:57.823Z,100788.28
2022-09-10T07:06:31.822Z,100770.88
2022-09-10T07:09:05.866Z,100781.41
2022-09-10T07:11:41.529Z,100793.47
2022-09-10T07:14:13.895Z,100798.75
2022-09-10T07:16:44.567Z,100799.41
2022-09-10T07:19:14.898Z,100799.84
2022-09-10T07:21:47.536Z,100799.75
2022-09-10T07:24:18.123Z,100799.94
2022-09-10T07:27:00.324Z,100806.97
2022-09-10T07:29:31.315Z,100802.72
2022-09-10T07:32:01.704Z,100809.19
2022-09-10T07:34:30.182Z,100811.91
2022-09-10T07:36:59.920Z,100812.94
2022-09-10T07:39:29.317Z,100789.06
2022-09-10T07:42:00.318Z,100825.50
2022-09-10T07:44:31.268Z,100837.53
2022-09-10T07:47:03.415Z,100838.22
2022-09-10T07:49:33.012Z,100837.91
2022-09-10T07:52:03.343Z,100845.09
2022-09-10T07:54:37.774Z,100850.94
2022-09-10T07:57:06.957Z,100847.88
2022-09-10T07:59:37.065Z,100852.19
2022-09-10T08:02:06.468Z,100851.03
2022-09-10T08:04:37.583Z,100867.19
2022-09-10T08:07:11.250Z,100871.38
2022-09-10T08:09:43.198Z,100877.31
2022-09-10T08:12:17.350Z,100887.00
2022-09-10T08:14:46.368Z,100886.00
2022-09-10T08:17:14.990Z,100892.81
2022-09-10T08:19:45.914Z,100905.72
2022-09-10T08:22:15.654Z,100904.81
2022-09-10T08:24:51.018Z,100906.38
2022-09-10T08:27:20.194Z,100912.19
2022-09-10T08:29:50.137Z,100916.84
2022-09-10T08:32:18.490Z,100928.06
2022-09-10T08:34:47.157Z,100929.75
2022-09-10T08:37:17.277Z,100931.97
2022-09-10T08:39:45.747Z,100940.63
2022-09-10T08:42:21.625Z,100945.81
2022-09-10T08:44:55.429Z,100944.81
2022-09-10T08:47:36.143Z,100949.06
2022-09-10T08:50:20.215Z,100954.81
2022-09-10T08:52:55.963Z,100952.34
2022-09-10T08:55:32.915Z,100954.47
2022-09-10T08:58:11.468Z,100931.53
2022-09-10T09:00:45.413Z,100965.66
2022-09-10T09:03:24.136Z,100966.19
2022-09-10T09:05:57.303Z,100971.50
2022-09-10T09:08:38.517Z,100966.28
2022-09-10T09:11:25.387Z,100945.50
2022-09-10T09:14:12.834Z,100980.06
2022-09-10T09:17:01.960Z,100974.50
2022-09-10T09:19:35.015Z,100972.78
2022-09-10T09:22:17.381Z,100987.56
2022-09-10T09:24:55.992Z,101001.53
2022-09-10T09:27:27.159Z,100997.59
2022-09-10T09:30:02.736Z,101006.94
2022-09-10T09:32:37.249Z,100999.97
2022-09-10T09:35:22.588Z,101004.06
2022-09-10T09:38:08.945Z,101005.84
2022-09-10T09:40:46.743Z,101005.84
2022-09-10T09:43:25.291Z,101017.47
2022-09-10T09:45:54.982Z,101016.19
2022-09-10T09:48:24.990Z,101026.28
2022-09-10T09:50:57.201Z,101028.78
2022-09-10T09:53:27.624Z,101045.78
2022-09-10T09:56:00.328Z,101019.50
2022-09-10T09:58:34.969Z,101041.28
2022-09-10T10:01:18.228Z,101047.09
2022-09-10T10:03:52.221Z,101015.34
2022-09-10T10:06:24.745Z,101029.56
2022-09-10T10:09:06.142Z,101046.06
2022-09-10T10:11:52.180Z,101046.72
2022-09-10T10:14:27.724Z,101011.50
2022-09-10T10:17:00.388Z,101037.13
2022-09-10T10:19:40.316Z,101057.91
2022-09-10T10:22:24.431Z,101034.50
2022-09-10T10:24:54.427Z,101051.19
2022-09-10T10:27:32.667Z,101038.81
2022-09-10T10:30:06.063Z,101064.47
2022-09-10T10:32:44.819Z,101061.72
2022-09-10T10:35:36.110Z,101072.38
2022-09-10T10:38:32.478Z,101072.72
2022-09-10T10:41:42.795Z,101077.09
2022-09-10T10:44:33.666Z,101046.88
2022-09-10T10:47:25.123Z,101079.66
2022-09-10T10:50:08.991Z,101079.47
2022-09-10T10:52:45.670Z,101081.63
2022-09-10T10:55:23.195Z,101092.41
2022-09-10T10:58:18.878Z,101103.97
2022-09-10T11:00:54.950Z,101097.63
2022-09-10T11:03:30.543Z,101112.94
2022-09-10T11:06:04.995Z,101108.56
2022-09-10T11:08:38.604Z,101103.44
2022-09-10T11:11:14.309Z,101096.63
2022-09-10T11:13:52.150Z,101105.34
2022-09-10T11:16:28.707Z,101093.31
2022-09-10T11:19:03.637Z,101061.75
2022-09-10T11:21:39.282Z,101098.41
2022-09-10T11:24:17.236Z,101101.09
2022-09-10T11:26:49.929Z,101075.75
2022-09-10T11:29:32.874Z,101109.16
2022-09-10T11:32:09.456Z,101117.59
2022-09-10T11:35:03.549Z,101117.41
2022-09-10T11:37:48.466Z,101130.25
2022-09-10T11:40:25.456Z,101122.97
2022-09-10T11:42:59.505Z,101122.38
2022-09-10T11:45:38.092Z,101101.00
2022-09-10T11:48:18.267Z,101032.00
2022-09-10T11:50:53.395Z,101110.19
2022-09-10T11:53:24.805Z,101117.38
2022-09-10T11:56:43.461Z,101117.00
2022-09-10T11:59:42.402Z,101119.19
2022-09-10T12:02:58.496Z,101134.31
2022-09-10T12:05:35.584Z,101144.38
2022-09-10T12:08:17.561Z,101139.63
2022-09-10T12:10:57.936Z,101144.00
2022-09-10T12:13:26.497Z,101152.91
2022-09-10T12:15:58.502Z,101146.16
2022-09-10T12:18:38.708Z,101157.50
2022-09-10T12:21:27.993Z,101150.06
2022-09-10T12:23:57.606Z,101162.69
2022-09-10T12:26:26.315Z,101158.09
2022-09-10T12:29:05.378Z,101150.66
2022-09-10T12:32:15.548Z,101147.22
2022-09-10T12:34:44.887Z,101148.41
2022-09-10T12:37:28.610Z,101151.91
2022-09-10T12:40:45.279Z,101157.38
2022-09-10T12:43:54.442Z,101157.41
2022-09-10T12:46:25.681Z,101162.63
2022-09-10T12:49:11.918Z,101163.38
2022-09-10T12:51:58.725Z,101151.34
2022-09-10T12:54:48.373Z,101169.63
2022-09-10T12:57:31.105Z,101146.88
2022-09-10T13:00:18.745Z,101176.06
2022-09-10T13:02:55.090Z,101183.47
2022-09-10T13:05:31.493Z,101170.91
2022-09-10T13:08:18.183Z,101180.28
2022-09-10T13:11:05.730Z,101184.19
2022-09-10T13:13:39.062Z,101180.31
2022-09-10T13:16:13.408Z,101183.31
2022-09-10T13:18:41.895Z,101180.34
2022-09-10T13:21:52.905Z,101182.13
2022-09-10T13:25:01.184Z,101179.09
2022-09-10T13:27:44.426Z,101178.72
2022-09-10T13:30:18.758Z,101171.59
2022-09-10T13:32:52.977Z,101186.31
2022-09-10T13:36:06.672Z,101189.38
2022-09-10T13:39:29.534Z,101177.91
2022-09-10T13:42:31.285Z,101193.13
2022-09-10T13:45:29.300Z,101185.34
2022-09-10T13:48:04.165Z,101177.41
2022-09-10T13:50:40.241Z,101190.53
2022-09-10T13:53:11.603Z,101192.97
2022-09-10T13:55:41.203Z,101195.00
2022-09-10T13:58:15.512Z,101164.34
2022-09-10T14:00:55.961Z,101197.50
2022-09-10T14:03:29.777Z,101215.66
2022-09-10T14:06:04.024Z,101207.84
2022-09-10T14:08:38.444Z,101203.94
2022-09-10T14:11:15.917Z,101185.03
2022-09-10T14:13:51.873Z,101204.63
2022-09-10T14:16:30.079Z,101195.75
2022-09-10T14:19:02.830Z,101214.28
2022-09-10T14:21:31.607Z,101224.56
2022-09-10T14:24:00.862Z,101217.00
2022-09-10T14:26:33.552Z,101152.53
2022-09-10T14:29:04.003Z,101220.25
2022-09-10T14:31:38.248Z,101221.03
2022-09-10T14:34:36.121Z,101224.16
2022-09-10T14:37:45.194Z,101230.97
2022-09-10T14:40:19.731Z,101228.03
2022-09-10T14:42:49.832Z,101242.63
2022-09-10T14:45:41.630Z,101239.00
2022-09-10T14:48:36.961Z,101244.91
2022-09-10T14:51:14.420Z,101244.69
2022-09-10T14:53:43.783Z,101249.03
2022-09-10T14:56:23.226Z,101249.53
2022-09-10T14:58:59.351Z,101245.31
2022-09-10T15:01:28.447Z,101251.91
2022-09-10T15:03:59.270Z,101258.41
2022-09-10T15:06:27.966Z,101260.00
2022-09-10T15:08:57.084Z,101252.84
2022-09-10T15:11:27.543Z,101264.53
2022-09-10T15:13:58.752Z,101252.59
2022-09-10T15:16:27.571Z,101295.47
2022-09-10T15:18:58.171Z,101267.84
2022-09-10T15:21:26.536Z,101267.84
2022-09-10T15:23:54.879Z,101254.28
2022-09-10T15:26:23.268Z,101271.94
2022-09-10T15:28:52.665Z,101276.22
2022-09-10T15:31:21.080Z,101280.56
2022-09-10T15:33:49.394Z,101281.22
2022-09-10T15:36:19.286Z,101287.25
2022-09-10T15:38:47.509Z,101295.78
2022-09-10T15:41:16.946Z,101292.13
2022-09-10T15:43:45.767Z,101289.81
2022-09-10T15:46:17.066Z,101303.81
2022-09-10T15:48:47.455Z,101294.34
2022-09-10T15:51:21.392Z,101276.53
2022-09-10T15:53:52.294Z,101294.50
2022-09-10T15:56:24.182Z,101290.47
2022-09-10T15:58:55.057Z,101292.41
2022-09-10T16:01:25.022Z,101293.94
2022-09-10T16:03:56.126Z,101302.75
2022-09-10T16:06:28.427Z,101300.53
2022-09-10T16:09:01.947Z,101300.19
2022-09-10T16:11:32.170Z,101306.94
2022-09-10T16:14:04.733Z,101310.50
2022-09-10T16:16:34.766Z,101310.56
2022-09-10T16:19:04.261Z,101300.16
2022-09-10T16:21:37.148Z,101313.56
2022-09-10T16:24:07.324Z,101314.09
2022-09-10T16:26:38.683Z,101321.97
2022-09-10T16:29:12.876Z,101327.13
2022-09-10T16:31:41.631Z,101327.09
2022-09-10T16:34:14.104Z,101311.06
2022-09-10T16:36:44.621Z,101229.72
2022-09-10T16:39:15.539Z,101333.03
2022-09-10T16:41:46.339Z,101339.03
2022-09-10T16:44:17.469Z,101304.34
2022-09-10T16:46:47.081Z,101321.59
2022-09-10T16:49:18.156Z,101344.53
2022-09-10T16:51:49.340Z,101328.34
2022-09-10T16:54:19.842Z,101349.63
2022-09-10T16:56:50.242Z,101347.06
2022-09-10T16:59:20.812Z,101361.88
2022-09-10T17:01:49.531Z,101360.78
2022-09-10T17:04:23.370Z,101332.44
2022-09-10T17:06:56.102Z,101362.50
2022-09-10T17:09:24.796Z,101365.34
2022-09-10T17:11:53.339Z,101362.06
2022-09-10T17:14:21.626Z,101368.00
2022-09-10T17:16:49.966Z,101362.66
2022-09-10T17:19:23.140Z,101303.91
2022-09-10T17:21:56.154Z,101344.59
2022-09-10T17:24:26.611Z,101362.00
2022-09-10T17:26:56.122Z,101364.84
2022-09-10T17:29:26.571Z,101373.25
2022-09-10T17:31:57.353Z,101349.44
2022-09-10T17:34:27.090Z,101380.88
2022-09-10T17:36:56.694Z,101383.16
2022-09-10T17:39:28.180Z,101382.41
2022-09-10T17:41:57.062Z,101394.91
2022-09-10T17:44:25.727Z,101387.97
2022-09-10T17:46:55.109Z,101393.03
2022-09-10T17:49:23.930Z,101394.31
2022-09-10T17:51:53.297Z,101388.56
2022-09-10T17:54:23.444Z,101402.59
2022-09-10T17:56:51.932Z,101387.41
2022-09-10T17:59:21.193Z,101410.72
2022-09-10T18:01:49.629Z,101411.72
2022-09-10T18:04:19.288Z,101425.50
2022-09-10T18:06:52.065Z,101409.81
2022-09-10T18:09:23.538Z,101418.44
2022-09-10T18:11:51.963Z,101419.88
2022-09-10T18:14:21.920Z,101428.94
2022-09-10T18:16:51.429Z,101397.59
2022-09-10T18:19:20.062Z,101435.25
2022-09-10T18:21:51.032Z,101442.59
2022-09-10T18:24:24.021Z,101442.88
2022-09-10T18:26:54.805Z,101450.03
2022-09-10T18:29:25.965Z,101451.13
2022-09-10T18:31:56.244Z,101460.19
2022-09-10T18:34:27.753Z,101459.00
2022-09-10T18:36:58.350Z,101479.06
2022-09-10T18:39:30.514Z,101472.22
2022-09-10T18:42:00.936Z,101474.09
2022-09-10T18:44:33.216Z,101478.97
2022-09-10T18:47:02.005Z,101480.38
2022-09-10T18:49:30.372Z,101481.19
2022-09-10T18:51:58.761Z,101482.91
2022-09-10T18:54:29.631Z,101483.06
2022-09-10T18:56:58.751Z,101495.75
2022-09-10T18:59:27.824Z,101502.78
2022-09-10T19:01:56.875Z,101499.44
2022-09-10T19:04:27.642Z,101506.63
2022-09-10T19:06:56.519Z,101504.41
2022-09-10T19:09:29.670Z,101492.31
2022-09-10T19:12:00.406Z,101498.31
2022-09-10T19:14:35.663Z,101510.03
2022-09-10T19:17:04.745Z,101512.81
2022-09-10T19:19:36.200Z,101512.59
2022-09-10T19:22:07.287Z,101501.97
2022-09-10T19:24:54.455Z,101510.97
2022-09-10T19:27:23.330Z,101509.91
2022-09-10T19:29:51.902Z,101508.97
2022-09-10T19:32:21.057Z,101519.88
2022-09-10T19:34:50.992Z,101517.13
2022-09-10T19:37:19.571Z,101523.28
2022-09-10T19:39:49.245Z,101522.25
2022-09-10T19:42:17.873Z,101519.69
2022-09-10T19:44:46.167Z,101521.31
2022-09-10T19:47:14.451Z,101532.91
2022-09-10T19:49:43.147Z,101531.28
2022-09-10T19:52:11.723Z,101508.75
2022-09-10T19:54:39.914Z,101532.19
2022-09-10T19:57:09.541Z,101520.00
2022-09-10T19:59:38.144Z,101541.44
2022-09-10T20:02:06.481Z,101546.31
2022-09-10T20:04:36.207Z,101548.28
2022-09-10T20:07:05.009Z,101545.75
2022-09-10T20:09:36.733Z,101557.47
2022-09-10T20:12:10.198Z,101545.72
2022-09-10T20:14:39.046Z,101546.81
2022-09-10T20:17:07.471Z,101549.50
2022-09-10T20:19:36.061Z,101548.59
2022-09-10T20:22:04.273Z,101545.22
2022-09-10T20:24:32.929Z,101545.31
2022-09-10T20:27:01.245Z,101553.28
2022-09-10T20:29:32.862Z,101565.06
2022-09-10T20:32:01.406Z,101565.34
2022-09-10T20:34:31.243Z,101574.56
2022-09-10T20:36:59.887Z,101573.72
2022-09-10T20:39:28.208Z,101578.28
2022-09-10T20:41:56.487Z,101578.44
2022-09-10T20:44:26.151Z,101580.25
2022-09-10T20:46:57.578Z,101580.47
2022-09-10T20:49:25.938Z,101573.66
2022-09-10T20:51:54.143Z,101581.25
2022-09-10T20:54:22.598Z,101575.50
2022-09-10T20:56:50.823Z,101588.00
2022-09-10T20:59:20.858Z,101559.22
2022-09-10T21:01:52.927Z,101545.44
2022-09-10T21:04:22.928Z,101591.00
2022-09-10T21:06:51.283Z,101582.16
2022-09-10T21:09:19.622Z,101588.56
2022-09-10T21:11:47.834Z,101592.25
2022-09-10T21:14:17.151Z,101589.41
2022-09-10T21:16:47.250Z,101568.06
2022-09-10T21:19:17.581Z,101591.84
2022-09-10T21:21:48.783Z,101595.41
2022-09-10T21:24:19.281Z,101595.09
2022-09-10T21:26:47.713Z,101592.38
2022-09-10T21:29:17.907Z,101575.03
2022-09-10T21:31:46.328Z,101592.31
2022-09-10T21:34:15.520Z,101598.75
2022-09-10T21:36:44.094Z,101579.97
2022-09-10T21:39:18.415Z,101588.63
2022-09-10T21:41:48.821Z,101582.75
2022-09-10T21:44:20.297Z,101577.88
2022-09-10T21:46:49.865Z,101602.47
2022-09-10T21:49:18.872Z,101604.63
2022-09-10T21:51:47.573Z,101558.00
2022-09-10T21:54:20.720Z,101591.66
2022-09-10T21:56:50.503Z,101614.47
2022-09-10T21:59:19.383Z,101595.03
2022-09-10T22:01:48.617Z,101607.63
2022-09-10T22:04:21.726Z,101606.59
2022-09-10T22:06:51.042Z,101589.34
2022-09-10T22:09:21.309Z,101611.63
2022-09-10T22:11:52.015Z,101603.13
2022-09-10T22:14:23.268Z,101624.44
2022-09-10T22:16:53.728Z,101500.69
2022-09-10T22:19:23.950Z,101626.50
2022-09-10T22:21:54.049Z,101626.44
2022-09-10T22:24:24.083Z,101626.81
2022-09-10T22:26:52.695Z,101631.38
2022-09-10T22:29:22.262Z,101631.56
2022-09-10T22:31:50.710Z,101635.41
2022-09-10T22:34:20.667Z,101640.91
2022-09-10T22:36:50.301Z,101648.16
2022-09-10T22:39:20.821Z,101578.75
2022-09-10T22:41:52.133Z,101616.81
2022-09-10T22:44:20.524Z,101638.84
2022-09-10T22:46:49.139Z,101645.72
2022-09-10T22:49:17.977Z,101564.72
2022-09-10T22:51:46.870Z,101643.56
2022-09-10T22:54:16.577Z,101646.34
2022-09-10T22:56:45.531Z,101646.50
2022-09-10T22:59:16.475Z,101648.16
2022-09-10T23:01:48.170Z,101644.63
2022-09-10T23:04:17.292Z,101634.19
2022-09-10T23:06:45.722Z,101651.78
2022-09-10T23:09:15.895Z,101646.41
2022-09-10T23:11:45.441Z,101571.34
2022-09-10T23:14:19.263Z,101638.25
2022-09-10T23:16:50.019Z,101652.53
2022-09-10T23:19:19.926Z,101658.09
2022-09-10T23:21:51.077Z,101657.47
2022-09-10T23:24:21.948Z,101666.16
2022-09-10T23:26:50.681Z,101642.56
2022-09-10T23:29:23.008Z,101671.78
2022-09-10T23:31:53.245Z,101681.84
2022-09-10T23:34:22.851Z,101679.00
2022-09-10T23:36:51.504Z,101668.47
2022-09-10T23:39:22.448Z,101656.34
2022-09-10T23:41:53.320Z,101684.72
2022-09-10T23:44:23.709Z,101683.75
2022-09-10T23:46:53.466Z,101670.66
2022-09-10T23:49:21.709Z,101689.22
2022-09-10T23:51:50.579Z,101697.28
2022-09-10T23:54:19.072Z,101693.75
2022-09-10T23:56:47.406Z,101673.41
2022-09-10T23:59:16.286Z,101693.66
